ACT        NSW        VIC        QLD        SA        WA        TAS        NT        INFO        CALC            by VK5ZD

Past Date/Time: (dd/mm/yyyy hh:mm or blank for current data)    

  Atmospheric Gas Attenuation - ITU Rec 676-11   --------------- dB/100km ---------------
WA Stations Date Time Temp RH % AH g/m3 Dew Point Wind Direction Speed kph Gust kph Barometer mB Rainfall Since 9am 24GHz 47GHz 76GHz 122GHz 134GHz 241GHz
Albany Airport 07/05 05:50 10.8 97 9.59 10.3 0 0 1033.8 3.8 21.8 29.3 46.6 122.2 118.1 406.8
Badgingarra 07/05 05:50 10.6 71 6.93 5.7 20 24 1013.1 0 16.2 24.1 34.7 90.7 80.2 274.4
Barimunya 07/05 05:50 16.5 37 5.2 1.8 24 30 1013.1 0 12.3 20.1 26.2 68.0 54.4 184.6
Barrow Island 07/05 05:50 25.5 50 11.84 14.3 39 48 1014.1 0 25.8 27.5 46.2 121.7 123.5 427.9
Bedout Island 07/05 05:50 25.8 67 16.13 19.2 59 63 1013.4 0 34.8 34.5 63.5 167.7 180.2 625.6
Bickley 07/05 05:50 8.4 84 7.13 5.9 26 33 1013.1 0 16.7 25.0 36.4 95.4 85.2 291.5
Boolgeeda 07/05 05:50 19 33 5.38 2.6 22 30 1017.9 0 12.6 20.0 26.1 67.9 55.0 186.8
Bridgetown 07/05 05:50 5.3 98 6.8 5 0 0 1033.1 0.2 16.1 26.2 37.4 97.6 85.6 292.1
Broome 07/05 05:50 20.8 72 13.04 15.6 11 15 1014.3 0 28.6 31.1 54.0 142.5 147.6 511.5
Bunbury 07/05 05:50 6.9 100 7.7 7 0 0 1032.6 0 18.0 27.2 40.4 105.8 96.4 330.1
Busselton Airport 07/05 05:50 7.7 94 7.63 6.8 11 11 1032.5 0 17.8 26.8 39.7 103.9 94.4 323.3
Cape Leeuwin 07/05 05:50 14.2 78 9.52 10.4 28 32 1032.6 0.2 21.5 28.0 44.2 116.0 111.9 385.6
Cape Naturaliste 07/05 05:50 13.1 81 9.24 9.9 32 39 1031.3 0 21.0 27.9 43.6 114.4 109.5 377.1
Carnarvon 07/05 05:50 16.1 42 5.76 3.2 17 20 1018.9 0 13.5 21.2 28.4 74.0 61.4 208.9
Christmas Creek 07/05 05:50 18.6 31 4.93 1.2 20 28 1020.8 0 11.6 19.6 24.9 64.5 50.5 170.9
Christmas Island 07/05 05:50 26 91 22.15 24.4 15 19 1009.6 0 47.6 45.5 91.2 241.5 271.0 941.6
Cocos Island 07/05 05:50 26.7 94 23.79 25.7 19 20 1009.3 0.4 51.0 48.5 98.7 261.4 295.6 1026.8
Collie East 07/05 05:50 6 94 6.83 5.1 0 0 1013.1 0 16.1 25.2 36.3 95.0 83.7 286.1
Coondewanna 07/05 05:50 16 37 5.04 1.3 30 37 1013.1 0 12.0 20.0 25.8 67.0 53.0 179.4
Cunderdin Airport 07/05 05:50 6.1 90 6.58 4.6 9 11 1031.3 0 15.6 25.5 36.0 94.0 81.5 278.0
Curtin 07/05 05:50 20.4 87 15.39 18.2 13 13 1013.5 4 33.7 35.4 64.7 170.8 182.3 632.4
Dalwallinu 07/05 05:50 8 80 6.62 4.8 11 13 1028.9 0 15.6 24.9 35.2 91.9 79.9 272.7
Dwellingup 07/05 05:50 8.2 89 7.46 6.5 13 15 1031.6 0 17.4 26.4 38.7 101.2 91.3 312.7
Eliwana Airport 07/05 05:50 20 32 5.53 3.1 28 35 1013.1 0 12.9 19.8 26.2 68.1 55.7 189.4
Esperance 07/05 05:50 12.8 94 10.53 11.9 9 11 1034.4 0.4 23.7 30.3 49.5 130.1 128.6 443.6
Esperance Airport 07/05 05:50 12.1 97 10.4 11.6 11 15 1034.6 0 23.5 30.3 49.4 129.7 127.9 441.1
Eucla 07/05 05:50 15 78 10 11.2 19 24 1032.1 2.4 22.5 28.6 45.8 120.2 117.3 404.6
Fitzroy Crossing 07/05 05:50 22.6 46 9.24 10.4 1015.6 0.6 20.5 24.5 38.1 100.0 95.8 330.4
Forrest 07/05 05:50 12.2 95 10.25 11.4 15 19 1031.6 0 23.2 29.9 48.5 127.4 125.2 431.9
Fortescue Dave Forrest 07/05 05:49 18 34 5.22 2.1 26 32 1020 0 12.3 20.1 26.0 67.5 54.0 183.2
Garden Island 07/05 05:50 13.2 74 8.5 8.7 9 11 1031.1 0 19.4 26.6 40.5 106.0 99.3 341.3
Geraldton Airport 07/05 05:50 14.7 57 7.18 6.3 22 26 1025.1 0 16.5 23.8 34.4 89.7 80.0 274.1
Gerangamete (Cfa) 07/05 07:40 5.4 84 5.86 2.9 9 9 1013.1 10 14.1 23.8 32.6 85.1 71.2 242.2
Giles* 07/05 07:30 8.5 65 5.55 2.3 13 17 1025.7 0.2 13.3 23.0 30.7 79.8 65.3 221.5
Gingin Airport 07/05 05:50 11.1 72 7.25 6.3 15 17 1029.9 0 16.8 25.1 36.4 95.1 85.1 291.2
Golden Grove 07/05 05:50 10.4 70 6.75 5.2 17 20 1013.1 0 15.8 23.9 34.0 89.0 78.1 266.9
Gooseberry Hill 07/05 05:50 10.1 79 7.47 6.6 30 35 1013.1 0 17.3 25.1 37.0 97.0 87.8 301.0
Gudai-Darri Mine 07/05 05:50 18.1 35 5.41 2.6 32 37 1013.1 0 12.7 20.1 26.4 68.6 55.7 189.2
Halls Creek 07/05 07:30 16.4 54 7.54 7.1 13 15 1017.5 0 17.2 23.7 34.7 90.7 82.2 282.1
Hopetoun North 07/05 05:50 11 97 9.71 10.5 9 11 1033.5 0 22.1 29.4 47.0 123.2 119.5 411.7
Iron Bridge Mine 07/05 05:50 22.8 28 5.69 3.5 26 30 1013.1 0 13.1 19.5 25.8 67.2 55.5 189.1
Jacup 07/05 05:50 9.6 97 8.89 9.1 11 13 1033.6 0 20.4 28.5 44.2 115.8 109.8 377.6
Jandakot 07/05 05:50 9.1 80 7.1 5.8 13 13 1030.8 0 16.6 25.5 36.8 96.0 85.3 291.8
Kalgoorlie-Boulder 07/05 05:50 7.9 86 7.07 5.7 13 15 1031.4 0 16.6 25.8 37.2 97.2 86.3 295.0
Kalumburu 07/05 07:30 23.3 50 10.45 12.3 11 22 1013.5 0 23.0 26.1 42.1 110.8 109.4 378.3
Karijini North 07/05 05:50 19.3 30 4.98 1.3 41 50 1018.5 0 11.7 19.4 24.8 64.2 50.5 171.0
Karratha 07/05 05:50 24.7 29 6.56 5.5 30 33 1014.2 0 14.8 20.2 28.0 73.1 63.4 216.9
Katanning Rs 07/05 05:50 7.7 98 7.95 7.4 7 9 1033.2 0 18.5 27.4 41.1 107.6 98.9 339.3
Koolan Island / Koolan Central 07/05 05:50 24.1 69 15.1 18.2 30 35 1013.1 0 32.8 33.3 60.4 159.4 169.5 588.1
Kununurra Airport 07/05 07:30 23 34 6.99 6.3 22 35 1015.4 0 15.8 21.2 30.0 78.5 69.5 238.1
Lake Grace 07/05 05:50 9.2 100 8.93 9.2 17 22 1032.9 0.2 20.5 28.6 44.6 116.8 110.9 381.3
Lancelin (Defence) 07/05 05:50 11.8 74 7.79 7.3 11 13 1028.4 0 17.9 25.7 38.2 99.9 91.3 313.2
Laverton 07/05 05:50 11.7 93 9.73 10.6 19 22 1029.3 0 22.1 29.1 46.4 121.9 118.3 407.7
Learmonth 07/05 05:50 16.3 52 7.21 6.4 9 9 1016.3 0 16.5 23.2 33.4 87.5 78.2 268.0
Legendre Island 07/05 05:50 26.5 46 11.52 14.2 56 61 1013.4 0 25.1 26.7 44.4 116.9 118.0 408.6
Leinster 07/05 05:50 11.1 80 8.06 7.8 15 17 1026.9 0 18.5 26.3 39.6 103.6 95.7 328.4
Leonora Airport 07/05 05:50 10 85 7.99 7.6 15 17 1029.2 0 18.4 26.6 39.9 104.5 96.3 330.3
Lombadina 07/05 05:50 25 78 17.96 20.9 19 28 1013.1 0 38.8 38.1 72.3 191.3 208.9 725.5
Mandora 07/05 05:50 22.5 43 8.59 9.3 17 24 1015.5 0 19.2 23.6 35.8 93.8 88.2 303.7
Mandurah 07/05 05:50 12.6 72 7.97 7.7 9 11 1031.3 0 18.3 25.9 38.7 101.1 93.0 319.1
Manjimup 07/05 05:50 8.8 99 8.62 8.7 7 13 1033.2 0 19.9 28.2 43.4 113.8 107.0 367.8
Marble Bar 07/05 05:50 22.7 27 5.45 2.7 28 35 1017.3 0 12.6 19.3 25.2 65.5 53.3 181.1
Mardie 07/05 05:50 24.8 30 6.83 6 33 41 1014.5 0 15.4 20.6 28.9 75.3 66.2 226.8
Meekatharra 07/05 05:50 12.6 66 7.3 6.4 19 22 1024.7 0 16.9 24.6 35.7 93.3 83.7 286.8
Millendon (Swan Valley) 07/05 05:50 11.1 73 7.35 6.4 4 4 1030.4 0 17.0 25.3 36.8 96.2 86.4 295.9
Morawa Airport 07/05 05:50 12.5 63 6.93 5.8 15 19 1027.1 0 16.1 24.1 34.4 89.9 79.2 271.0
Mount Keith 07/05 05:50 10.9 75 7.46 6.6 15 19 1013.1 0 17.3 24.9 36.6 95.9 86.8 297.5
Mount Magnet Airport 07/05 05:50 12.4 64 6.99 5.8 22 26 1026.3 0 16.2 24.2 34.7 90.5 80.1 273.9
Munglinup West 07/05 05:50 9.1 96 8.52 8.5 13 15 1033.7 0.2 19.6 28.0 42.9 112.3 105.2 361.5
Newdegate 07/05 05:50 9.2 93 8.31 8.1 7 11 1033 0 19.2 27.6 41.9 109.6 102.1 350.4
Newman Airport 07/05 05:50 16.1 39 5.35 2.2 22 30 1021.2 0 12.6 20.7 27.1 70.4 56.8 192.8
Norseman Airport 07/05 05:50 9.5 96 8.74 8.9 11 15 1033 0 20.1 28.2 43.6 114.2 107.7 370.4
North Island 07/05 05:50 19.8 54 9.22 10.2 37 44 1023.9 0 20.6 25.5 39.7 104.1 99.6 343.5
Onslow Airport 07/05 05:50 20.7 46 8.28 8.7 22 24 1015.8 0 18.6 23.6 35.5 92.9 86.5 297.6
Paraburdoo 07/05 05:50 18.6 33 5.25 2 22 30 1018.6 0 12.3 19.9 25.9 67.2 53.9 182.8
Pearce 07/05 05:50 13.5 60 7.02 5.9 11 13 1029.9 0 16.2 24.1 34.5 89.9 79.6 272.3
Perth 07/05 05:50 10.1 79 7.47 6.6 4 6 1030.7 0 17.3 25.8 37.8 98.8 89.2 305.4
Perth Airport 07/05 05:50 11.4 70 7.19 6.1 15 17 1030.6 0 16.7 25.0 36.1 94.2 84.0 287.5
Port Hedland 07/05 05:50 24.7 36 8.15 8.6 35 43 1014.9 0 18.1 22.4 33.3 87.2 80.8 278.0
Portable Btsa (Dfes) 07/05 05:40 17.8 39 5.92 3.9 17 19 1013.1 0 13.7 20.8 28.2 73.4 61.6 209.9
Portable Btsb (Dfes) 07/05 05:40 8.3 82 6.91 5.5 7 9 1013.1 0 16.2 24.7 35.6 93.1 82.4 281.6
Portable Btsd (Dfes) 07/05 05:40 7 94 7.29 6.1 13 13 1013.1 0 17.1 25.7 37.8 98.9 89.0 304.5
Portable Btsf (Dfes) 07/05 05:00 13 65 7.37 6.6 24 30 1013.1 0 17.0 24.2 35.3 92.5 83.4 285.7
Portable Btsh (Dfes) 07/05 05:40 13.3 100 11.55 13.3 4 6 1013.1 2.2 26.0 31.1 52.6 138.7 140.4 485.2
Portable Btsj (Dfes) 07/05 05:40 8 90 7.44 6.4 6 7 1013.1 0 17.4 25.7 37.9 99.3 89.9 307.8
Portable Btsk (Dfes) 07/05 05:40 18.4 37 5.82 3.4 9 11 1013.1 0 13.5 20.6 27.6 72.0 60.0 204.4
Portable Btsl (Dfes) 07/05 05:40 12.6 91 10.07 11.2 13 17 1013.1 0 22.8 28.7 46.6 122.5 120.2 414.6
Portable Btsm (Dfes) 07/05 05:40 13.6 47 5.53 2.7 6 7 1013.1 0 13.1 21.2 28.3 73.6 60.3 204.8
Portable Btsn (Dfes) 07/05 05:40 11.6 69 7.17 6.1 13 15 1013.1 0 16.6 24.2 35.2 92.0 82.3 281.7
Portable Btso (Dfes) 07/05 05:40 7.7 93 7.54 6.6 0 2 1013.1 0 17.6 25.9 38.5 100.8 91.6 313.8
Red Rocks Point 07/05 05:50 16.5 73 10.25 11.6 41 43 1032.4 1.8 22.9 28.5 46.0 120.7 118.5 408.9
Rocky Gully South 07/05 05:50 9.4 96 8.69 8.8 7 9 1013.1 0.2 20.0 27.4 42.5 111.5 105.4 362.5
Roebourne Airport 07/05 05:50 23.8 30 6.45 5.2 28 32 1014.9 0 14.6 20.3 28.0 73.0 62.9 215.2
Rottnest Island 07/05 05:50 14.6 64 8.01 7.9 22 24 1030 0 18.3 25.3 37.8 98.9 91.0 312.6
Salmon Gums Rs 07/05 05:50 6.6 100 7.55 6.6 0 0 1013.1 0 17.7 26.3 39.0 102.4 93.0 318.8
Shannon 07/05 05:50 8.3 100 8.43 8.4 6 6 1013.1 0 19.5 27.3 41.9 110.1 103.3 354.8
Shark Bay Airport 07/05 05:50 16.8 57 8.15 8.2 19 20 1020.4 0 18.5 24.6 36.9 96.7 89.6 307.9
Solomon Airport 07/05 05:50 19.7 32 5.43 2.5 26 32 1018.3 0 12.7 19.9 26.1 67.8 55.1 187.2
Southern Cross Airport 07/05 05:50 7.7 91 7.38 6.3 9 11 1031.6 0 17.2 26.4 38.6 101.0 90.8 310.8
Swanbourne 07/05 05:50 10.7 87 8.55 8.6 9 11 1013.1 0 19.6 26.7 41.2 108.1 101.7 349.7
Telfer 07/05 05:50 19.9 28 4.81 0.9 32 39 1019.4 0 11.4 19.1 24.1 62.4 48.4 163.5
Thevenard Island 07/05 05:30 24.1 50 10.94 13 24 30 1015.2 0 24.0 26.6 43.6 114.8 114.5 396.2
Troughton Island 07/05 07:30 26.8 56 14.25 17.3 41 50 1013 0 30.8 30.9 54.8 144.7 152.2 528.2
Truscott 07/05 07:30 23.6 50 10.63 12.6 15 22 1012.7 0 23.4 26.2 42.6 112.1 111.2 384.4
Walpole North 07/05 05:50 12.1 99 10.62 11.9 4 6 1033.2 0.6 24.0 30.7 50.3 132.2 131.0 451.9
Wandering 07/05 05:50 9.4 88 7.96 7.5 7 9 1013.1 0 18.4 26.1 39.4 103.3 95.3 327.0
Warburton 07/05 07:30 11.2 68 6.89 5.5 15 20 1027.1 0 16.0 24.4 34.8 90.9 80.0 273.7
West Angelas 07/05 05:50 15.5 40 5.29 2.1 20 30 1021.7 0 12.5 20.8 27.1 70.4 56.6 191.9
West Musgrave Airport 07/05 05:50 9.9 69 6.44 4.5 15 15 1013.1 0 15.1 23.5 33.0 86.3 74.6 254.6
Wiluna Airport 07/05 05:50 9.2 76 6.79 5.2 7 7 1026.1 0 15.9 24.7 35.3 92.1 80.7 275.8
Witchcliffe West 07/05 05:50 8.2 100 8.38 8.2 9 11 1032.3 0 19.4 28.0 42.7 111.8 104.3 358.3
Wyndham Airport 07/05 07:30 21.8 48 9.21 10.3 7 11 1014.8 0 20.5 24.7 38.3 100.6 96.3 332.2
Yampi Sound (Defence) 07/05 05:50 22.1 89 17.37 20.2 0 0 1017.7 10.6 37.8 38.5 72.6 191.9 208.7 724.2

Last Refresh: 07-May-2026 07:35:53

Bureau of Meteorology